createdAt,value
2017-08-29T00:02:22.929Z,5.40
2017-08-29T00:04:57.441Z,6.15
2017-08-29T00:07:32.185Z,5.37
2017-08-29T00:10:06.621Z,4.80
2017-08-29T00:12:40.977Z,5.85
2017-08-29T00:15:15.412Z,4.75
2017-08-29T00:17:50.173Z,5.35
2017-08-29T00:20:24.678Z,5.50
2017-08-29T00:22:59.204Z,5.30
2017-08-29T00:25:34.560Z,5.05
2017-08-29T00:28:08.973Z,5.55
2017-08-29T00:30:43.371Z,5.68
2017-08-29T00:33:17.878Z,5.05
2017-08-29T00:35:52.337Z,5.50
2017-08-29T00:38:26.713Z,5.10
2017-08-29T00:41:01.276Z,5.28
2017-08-29T00:43:35.673Z,4.60
2017-08-29T00:46:10.026Z,5.15
2017-08-29T00:48:44.409Z,4.55
2017-08-29T00:51:18.929Z,5.00
2017-08-29T00:53:53.332Z,4.95
2017-08-29T00:56:27.771Z,3.95
2017-08-29T00:59:02.189Z,4.40
2017-08-29T01:01:36.613Z,4.43
2017-08-29T01:04:11.097Z,4.45
2017-08-29T01:06:45.652Z,4.35
2017-08-29T01:09:20.003Z,4.78
2017-08-29T01:11:54.505Z,4.40
2017-08-29T01:14:29.621Z,5.60
2017-08-29T01:17:04.272Z,4.97
2017-08-29T01:19:38.637Z,4.00
2017-08-29T01:22:13.145Z,4.30
2017-08-29T01:24:47.671Z,4.55
2017-08-29T01:27:22.261Z,4.85
2017-08-29T01:29:56.641Z,4.95
2017-08-29T01:32:31.404Z,4.07
2017-08-29T01:35:05.757Z,4.05
2017-08-29T01:37:40.101Z,4.50
2017-08-29T01:40:14.647Z,4.50
2017-08-29T01:42:49.170Z,4.60
2017-08-29T01:45:23.690Z,3.95
2017-08-29T01:47:58.265Z,4.03
2017-08-29T01:50:32.720Z,4.37
2017-08-29T01:53:07.114Z,4.25
2017-08-29T01:55:41.439Z,4.37
2017-08-29T01:58:16.092Z,4.10
2017-08-29T02:00:50.508Z,4.40
2017-08-29T02:03:24.924Z,4.55
2017-08-29T02:05:59.428Z,3.95
2017-08-29T02:08:33.844Z,3.85
2017-08-29T02:11:08.200Z,3.42
2017-08-29T02:13:42.708Z,3.22
2017-08-29T02:16:17.240Z,4.87
2017-08-29T02:18:51.697Z,4.10
2017-08-29T02:21:26.912Z,3.90
2017-08-29T02:24:01.423Z,5.25
2017-08-29T02:26:35.808Z,4.12
2017-08-29T02:29:10.573Z,4.18
2017-08-29T02:31:45.012Z,4.43
2017-08-29T02:34:19.586Z,4.12
2017-08-29T02:36:54.016Z,3.75
2017-08-29T02:39:28.365Z,3.35
2017-08-29T02:42:02.833Z,3.83
2017-08-29T02:44:37.584Z,4.20
2017-08-29T02:47:11.904Z,3.50
2017-08-29T02:49:46.443Z,4.12
2017-08-29T02:52:20.795Z,4.45
2017-08-29T02:54:55.384Z,4.40
2017-08-29T02:57:29.824Z,4.40
2017-08-29T03:00:04.101Z,4.05
2017-08-29T03:02:38.593Z,4.95
2017-08-29T03:05:13.933Z,4.60
2017-08-29T03:07:48.536Z,5.03
2017-08-29T03:10:22.885Z,5.35
2017-08-29T03:12:57.353Z,4.70
2017-08-29T03:15:31.969Z,4.72
2017-08-29T03:18:06.384Z,4.20
2017-08-29T03:20:40.743Z,4.90
2017-08-29T03:23:15.277Z,4.60
2017-08-29T03:25:49.747Z,4.65
2017-08-29T03:28:24.059Z,5.05
2017-08-29T03:30:59.163Z,4.62
2017-08-29T03:33:33.475Z,4.55
2017-08-29T03:36:08.016Z,4.53
2017-08-29T03:38:42.420Z,4.97
2017-08-29T03:41:17.056Z,4.22
2017-08-29T03:43:51.581Z,4.57
2017-08-29T03:46:26.424Z,4.45
2017-08-29T03:49:00.866Z,4.40
2017-08-29T03:51:35.420Z,3.97
2017-08-29T03:54:09.880Z,4.43
2017-08-29T03:56:44.397Z,4.20
2017-08-29T03:59:18.837Z,4.00
2017-08-29T04:01:53.172Z,3.75
2017-08-29T04:04:27.644Z,4.50
2017-08-29T04:07:02.361Z,4.82
2017-08-29T04:09:36.765Z,4.25
2017-08-29T04:12:11.285Z,4.05
2017-08-29T04:14:45.615Z,4.35
2017-08-29T04:17:20.133Z,4.72
2017-08-29T04:19:54.452Z,4.05
2017-08-29T04:22:28.798Z,4.00
2017-08-29T04:25:03.336Z,4.30
2017-08-29T04:27:37.904Z,3.83
2017-08-29T04:30:12.280Z,3.40
2017-08-29T04:32:46.713Z,3.78
2017-08-29T04:35:21.017Z,4.10
2017-08-29T04:37:55.513Z,3.75
2017-08-29T04:40:29.985Z,5.00
2017-08-29T04:43:04.635Z,4.00
2017-08-29T04:45:38.966Z,4.10
2017-08-29T04:48:13.304Z,3.92
2017-08-29T04:50:47.640Z,3.67
2017-08-29T04:53:21.945Z,3.62
2017-08-29T04:55:56.437Z,3.80
2017-08-29T04:58:30.842Z,4.10
2017-08-29T05:01:05.167Z,4.55
2017-08-29T05:03:39.544Z,4.05
2017-08-29T05:06:13.988Z,3.55
2017-08-29T05:08:48.509Z,3.90
2017-08-29T05:11:23.070Z,4.25
2017-08-29T05:13:57.425Z,4.25
2017-08-29T05:16:32.790Z,4.20
2017-08-29T05:19:07.191Z,3.75
2017-08-29T05:21:41.560Z,4.40
2017-08-29T05:24:15.940Z,4.62
2017-08-29T05:26:50.396Z,4.07
2017-08-29T05:29:24.917Z,4.35
2017-08-29T05:31:59.313Z,3.90
2017-08-29T05:34:33.792Z,4.65
2017-08-29T05:37:08.541Z,3.65
2017-08-29T05:39:42.909Z,4.50
2017-08-29T05:42:17.576Z,3.95
2017-08-29T05:44:51.948Z,4.20
2017-08-29T05:47:26.325Z,3.87
2017-08-29T05:50:00.808Z,4.03
2017-08-29T05:52:35.216Z,3.58
2017-08-29T05:55:09.616Z,3.53
2017-08-29T05:57:44.065Z,3.22
2017-08-29T06:00:18.402Z,3.58
2017-08-29T06:02:52.849Z,3.40
2017-08-29T06:05:28.127Z,3.15
2017-08-29T06:08:02.589Z,3.45
2017-08-29T06:10:37.089Z,2.80
2017-08-29T06:13:11.502Z,3.30
2017-08-29T06:15:46.020Z,3.22
2017-08-29T06:18:20.485Z,3.65
2017-08-29T06:20:54.875Z,2.60
2017-08-29T06:23:29.343Z,2.65
2017-08-29T06:26:03.851Z,3.08
2017-08-29T06:28:38.300Z,3.12
2017-08-29T06:31:13.543Z,3.03
2017-08-29T06:33:48.009Z,5.12
2017-08-29T06:36:22.472Z,3.08
2017-08-29T06:38:57.931Z,2.97
2017-08-29T06:41:32.321Z,3.15
2017-08-29T06:44:06.870Z,2.80
2017-08-29T06:46:41.599Z,3.53
2017-08-29T06:49:15.944Z,3.10
2017-08-29T06:51:50.326Z,3.25
2017-08-29T06:54:24.849Z,3.05
2017-08-29T06:56:59.208Z,2.78
2017-08-29T06:59:33.714Z,3.00
2017-08-29T07:02:08.093Z,3.90
2017-08-29T07:04:42.738Z,3.15
2017-08-29T07:07:17.132Z,3.03
2017-08-29T07:09:51.584Z,3.25
2017-08-29T07:12:26.091Z,3.37
2017-08-29T07:15:00.497Z,3.58
2017-08-29T07:17:34.825Z,3.80
2017-08-29T07:20:09.255Z,3.35
2017-08-29T07:22:43.560Z,3.60
2017-08-29T07:25:17.884Z,3.53
2017-08-29T07:27:52.433Z,3.85
2017-08-29T07:30:26.744Z,4.18
2017-08-29T07:33:01.884Z,4.12
2017-08-29T07:35:36.253Z,3.62
2017-08-29T07:38:10.688Z,3.70
2017-08-29T07:40:45.256Z,3.78
2017-08-29T07:43:19.633Z,4.35
2017-08-29T07:45:54.757Z,4.18
2017-08-29T07:48:29.260Z,4.10
2017-08-29T07:51:03.715Z,3.53
2017-08-29T07:53:38.076Z,4.50
2017-08-29T07:56:12.621Z,3.25
2017-08-29T07:58:48.317Z,3.92
2017-08-29T08:01:22.814Z,4.10
2017-08-29T08:03:59.305Z,3.87
2017-08-29T08:06:33.832Z,4.37
2017-08-29T08:09:08.261Z,4.03
2017-08-29T08:11:42.770Z,4.53
2017-08-29T08:14:17.264Z,4.10
2017-08-29T08:16:51.916Z,4.77
2017-08-29T08:19:28.658Z,4.67
2017-08-29T08:22:03.168Z,3.97
2017-08-29T08:24:37.515Z,3.63
2017-08-29T08:27:12.150Z,4.40
2017-08-29T08:29:46.620Z,4.07
2017-08-29T08:32:21.312Z,4.17
2017-08-29T08:34:55.676Z,3.90
2017-08-29T08:37:30.098Z,4.63
2017-08-29T08:40:04.577Z,3.70
2017-08-29T08:42:39.056Z,4.00
2017-08-29T08:45:13.380Z,4.30
2017-08-29T08:47:49.096Z,4.30
2017-08-29T08:50:23.493Z,5.00
2017-08-29T08:52:59.153Z,4.73
2017-08-29T08:55:34.572Z,4.70
2017-08-29T08:58:09.232Z,4.90
2017-08-29T09:00:43.613Z,5.97
2017-08-29T09:03:18.453Z,4.33
2017-08-29T09:05:53.915Z,5.30
2017-08-29T09:08:28.704Z,5.27
2017-08-29T09:11:08.945Z,4.83
2017-08-29T09:13:43.516Z,5.40
2017-08-29T09:16:17.956Z,4.57
2017-08-29T09:18:52.510Z,5.00
2017-08-29T09:21:26.905Z,4.20
2017-08-29T09:24:01.581Z,4.87
2017-08-29T09:26:35.980Z,4.70
2017-08-29T09:29:10.840Z,4.87
2017-08-29T09:31:45.271Z,4.50
2017-08-29T09:34:19.713Z,5.60
2017-08-29T09:36:54.302Z,5.33
2017-08-29T09:39:28.917Z,4.87
2017-08-29T09:42:03.412Z,4.90
2017-08-29T09:44:37.953Z,5.40
2017-08-29T09:47:12.576Z,4.47
2017-08-29T09:49:47.060Z,4.93
2017-08-29T09:52:21.578Z,4.00
2017-08-29T09:54:56.382Z,5.90
2017-08-29T09:57:30.858Z,4.40
2017-08-29T10:00:05.357Z,4.83
2017-08-29T10:02:40.026Z,5.30
2017-08-29T10:05:14.509Z,7.47
2017-08-29T10:07:48.982Z,5.03
2017-08-29T10:10:23.438Z,5.30
2017-08-29T10:12:58.104Z,5.90
2017-08-29T10:15:32.666Z,10.03
2017-08-29T10:18:07.265Z,5.20
2017-08-29T10:20:42.194Z,6.60
2017-08-29T10:23:16.671Z,4.37
2017-08-29T10:25:51.453Z,4.97
2017-08-29T10:28:25.872Z,4.33
2017-08-29T10:31:00.470Z,5.20
2017-08-29T10:33:35.363Z,3.80
2017-08-29T10:36:11.253Z,5.07
2017-08-29T10:38:46.326Z,5.00
2017-08-29T10:41:20.841Z,4.50
2017-08-29T10:43:55.333Z,3.57
2017-08-29T10:46:30.525Z,3.80
2017-08-29T10:49:05.128Z,4.30
2017-08-29T10:51:39.687Z,3.80
2017-08-29T10:54:14.448Z,3.53
2017-08-29T10:56:49.013Z,4.80
2017-08-29T10:59:23.400Z,4.30
2017-08-29T11:01:57.887Z,4.80
2017-08-29T11:04:32.421Z,5.53
2017-08-29T11:07:07.029Z,3.80
2017-08-29T11:09:41.297Z,4.60
2017-08-29T11:12:15.641Z,4.03
2017-08-29T11:14:50.074Z,4.17
2017-08-29T11:17:24.554Z,3.80
2017-08-29T11:19:59.037Z,3.80
2017-08-29T11:22:33.446Z,4.50
2017-08-29T11:25:07.930Z,5.00
2017-08-29T11:27:42.358Z,5.10
2017-08-29T11:30:16.817Z,8.83
2017-08-29T11:32:51.185Z,6.30
2017-08-29T11:35:25.660Z,5.50
2017-08-29T11:38:00.141Z,6.00
2017-08-29T11:40:34.885Z,5.93
2017-08-29T11:43:09.218Z,6.23
2017-08-29T11:45:43.709Z,6.73
2017-08-29T11:48:18.100Z,7.27
2017-08-29T11:50:52.579Z,10.07
2017-08-29T11:53:26.979Z,8.80
2017-08-29T11:56:01.385Z,7.93
2017-08-29T11:58:35.828Z,7.97
2017-08-29T12:01:10.452Z,9.23
2017-08-29T12:03:44.894Z,9.20
2017-08-29T12:06:19.410Z,8.40
2017-08-29T12:08:53.872Z,8.40
2017-08-29T12:11:28.541Z,8.77
2017-08-29T12:14:02.987Z,9.83
2017-08-29T12:16:37.425Z,9.50
2017-08-29T12:19:11.745Z,11.07
2017-08-29T12:21:46.148Z,9.60
2017-08-29T12:24:20.678Z,11.77
2017-08-29T12:26:55.307Z,10.23
2017-08-29T12:29:29.873Z,10.33
2017-08-29T12:32:04.312Z,12.20
2017-08-29T12:34:38.857Z,10.03
2017-08-29T12:37:13.389Z,12.83
2017-08-29T12:39:47.795Z,10.40
2017-08-29T12:42:22.192Z,13.80
2017-08-29T12:44:56.743Z,12.47
2017-08-29T12:47:31.366Z,12.50
2017-08-29T12:50:05.827Z,13.23
2017-08-29T12:52:40.358Z,13.03
2017-08-29T12:55:14.871Z,12.03
2017-08-29T12:57:49.420Z,12.50
2017-08-29T13:00:23.696Z,11.50
2017-08-29T13:02:58.452Z,12.27
2017-08-29T13:05:34.553Z,12.03
2017-08-29T13:08:09.345Z,11.57
2017-08-29T13:10:43.845Z,13.33
2017-08-29T13:13:18.386Z,12.00
2017-08-29T13:15:53.605Z,11.20
2017-08-29T13:18:28.159Z,11.33
2017-08-29T13:21:02.661Z,10.10
2017-08-29T13:23:37.220Z,9.73
2017-08-29T13:26:11.653Z,9.67
2017-08-29T13:28:46.306Z,9.77
2017-08-29T13:31:20.766Z,9.03
2017-08-29T13:33:55.208Z,8.80
2017-08-29T13:36:29.561Z,9.13
2017-08-29T13:39:04.079Z,9.23
2017-08-29T13:41:39.339Z,8.70
2017-08-29T13:44:13.969Z,8.60
2017-08-29T13:46:48.361Z,9.27
2017-08-29T13:49:22.969Z,8.50
2017-08-29T13:51:57.424Z,9.50
2017-08-29T13:54:32.173Z,10.63
2017-08-29T13:57:06.562Z,8.90
2017-08-29T13:59:41.422Z,9.33
2017-08-29T14:02:15.764Z,11.20
2017-08-29T14:04:50.155Z,10.13
2017-08-29T14:07:24.753Z,11.20
2017-08-29T14:09:59.463Z,12.17
2017-08-29T14:12:34.049Z,11.87
2017-08-29T14:15:08.651Z,10.70
2017-08-29T14:17:43.090Z,11.20
2017-08-29T14:20:17.896Z,13.40
2017-08-29T14:22:52.371Z,13.20
2017-08-29T14:25:27.118Z,11.47
2017-08-29T14:28:01.717Z,11.80
2017-08-29T14:30:36.580Z,11.13
2017-08-29T14:33:10.959Z,11.00
2017-08-29T14:35:45.541Z,11.27
2017-08-29T14:38:20.055Z,9.67
2017-08-29T14:40:54.673Z,10.20
2017-08-29T14:43:29.169Z,10.90
2017-08-29T14:46:03.721Z,9.93
2017-08-29T14:48:49.978Z,10.73
2017-08-29T14:51:24.292Z,11.50
2017-08-29T14:53:58.637Z,10.80
2017-08-29T14:56:33.175Z,10.13
2017-08-29T14:59:07.692Z,11.70
2017-08-29T15:01:42.205Z,11.93
2017-08-29T15:04:16.744Z,13.30
2017-08-29T15:06:52.036Z,11.90
2017-08-29T15:09:27.190Z,12.43
2017-08-29T15:12:01.950Z,12.30
2017-08-29T15:14:36.268Z,13.37
2017-08-29T15:17:10.658Z,12.10
2017-08-29T15:19:45.064Z,13.30
2017-08-29T15:22:19.628Z,13.20
2017-08-29T15:24:54.140Z,14.07
2017-08-29T15:27:28.484Z,13.10
2017-08-29T15:30:02.798Z,13.20
2017-08-29T15:32:37.320Z,14.23
2017-08-29T15:35:11.628Z,13.60
2017-08-29T15:37:46.240Z,15.40
2017-08-29T15:40:20.745Z,13.30
2017-08-29T15:42:55.222Z,14.30
2017-08-29T15:45:29.602Z,14.27
2017-08-29T15:48:04.010Z,13.57
2017-08-29T15:50:38.545Z,13.97
2017-08-29T15:53:13.064Z,14.43
2017-08-29T15:55:47.449Z,13.03
2017-08-29T15:58:22.768Z,12.90
2017-08-29T16:00:57.057Z,11.90
2017-08-29T16:03:31.668Z,12.13
2017-08-29T16:06:06.224Z,11.10
2017-08-29T16:08:40.600Z,10.00
2017-08-29T16:11:15.136Z,10.50
2017-08-29T16:13:49.673Z,11.43
2017-08-29T16:16:24.236Z,11.60
2017-08-29T16:18:59.544Z,10.30
2017-08-29T16:21:33.882Z,11.40
2017-08-29T16:24:08.312Z,12.57
2017-08-29T16:26:42.852Z,12.40
2017-08-29T16:29:17.147Z,12.47
2017-08-29T16:31:51.721Z,11.90
2017-08-29T16:34:26.213Z,11.53
2017-08-29T16:37:00.576Z,11.20
2017-08-29T16:39:35.065Z,10.20
2017-08-29T16:42:09.408Z,10.90
2017-08-29T16:44:43.841Z,10.70
2017-08-29T16:47:18.225Z,11.40
2017-08-29T16:49:52.597Z,11.50
2017-08-29T16:52:27.068Z,10.73
2017-08-29T16:55:01.469Z,11.20
2017-08-29T16:57:36.118Z,10.67
2017-08-29T17:00:10.589Z,10.47
2017-08-29T17:02:45.153Z,10.97
2017-08-29T17:05:19.500Z,10.77
2017-08-29T17:07:53.882Z,10.30
2017-08-29T17:10:28.330Z,10.43
2017-08-29T17:13:02.773Z,11.43
2017-08-29T17:15:37.114Z,9.93
2017-08-29T17:18:11.670Z,10.10
2017-08-29T17:20:46.190Z,9.73
2017-08-29T17:23:20.651Z,10.60
2017-08-29T17:25:54.985Z,11.63
2017-08-29T17:28:29.384Z,11.13
2017-08-29T17:31:03.887Z,11.30
2017-08-29T17:33:38.294Z,11.10
2017-08-29T17:36:12.851Z,9.20
2017-08-29T17:38:47.180Z,11.33
2017-08-29T17:41:21.573Z,11.90
2017-08-29T17:43:56.014Z,11.20
2017-08-29T17:46:30.405Z,11.07
2017-08-29T17:49:04.873Z,10.90
2017-08-29T17:51:39.273Z,10.00
2017-08-29T17:54:13.648Z,10.43
2017-08-29T17:56:48.015Z,11.17
2017-08-29T17:59:22.332Z,11.23
2017-08-29T18:01:56.753Z,10.93
2017-08-29T18:04:31.112Z,11.80
2017-08-29T18:07:05.848Z,12.00
2017-08-29T18:09:40.334Z,11.03
2017-08-29T18:12:14.984Z,12.37
2017-08-29T18:14:49.450Z,11.80
2017-08-29T18:17:23.817Z,13.73
2017-08-29T18:19:58.210Z,14.47
2017-08-29T18:22:32.589Z,15.20
2017-08-29T18:25:06.931Z,16.33
2017-08-29T18:27:41.705Z,16.90
2017-08-29T18:30:16.078Z,17.00
2017-08-29T18:32:50.559Z,18.17
2017-08-29T18:35:25.075Z,19.03
2017-08-29T18:37:59.685Z,19.10
2017-08-29T18:40:34.209Z,19.00
2017-08-29T18:43:08.607Z,21.47
2017-08-29T18:45:42.918Z,22.33
2017-08-29T18:48:17.463Z,23.60
2017-08-29T18:50:51.932Z,22.13
2017-08-29T18:53:26.604Z,21.37
2017-08-29T18:56:01.115Z,23.57
2017-08-29T18:58:35.572Z,25.70
2017-08-29T19:01:10.073Z,26.10
2017-08-29T19:03:44.441Z,25.40
2017-08-29T19:06:18.922Z,27.60
2017-08-29T19:08:53.492Z,27.13
2017-08-29T19:11:27.940Z,30.07
2017-08-29T19:14:02.353Z,29.20
2017-08-29T19:16:36.760Z,30.00
2017-08-29T19:19:11.421Z,32.00
2017-08-29T19:21:45.909Z,31.07
2017-08-29T19:24:20.485Z,30.43
2017-08-29T19:26:54.868Z,29.47
2017-08-29T19:29:29.414Z,33.60
2017-08-29T19:32:03.794Z,29.93
2017-08-29T19:34:38.177Z,34.83
2017-08-29T19:37:12.580Z,32.53
2017-08-29T19:39:47.025Z,34.23
2017-08-29T19:42:21.528Z,33.60
2017-08-29T19:44:55.891Z,34.53
2017-08-29T19:47:30.372Z,32.13
2017-08-29T19:50:04.856Z,31.40
2017-08-29T19:52:39.260Z,34.27
2017-08-29T19:55:13.731Z,31.43
2017-08-29T19:57:48.115Z,32.50
2017-08-29T20:00:22.687Z,32.97
2017-08-29T20:02:56.960Z,32.33
2017-08-29T20:05:31.385Z,33.17
2017-08-29T20:08:05.795Z,33.70
2017-08-29T20:10:40.306Z,34.03
2017-08-29T20:13:14.861Z,34.20
2017-08-29T20:15:49.307Z,33.33
2017-08-29T20:18:24.190Z,33.30
2017-08-29T20:20:58.707Z,34.50
2017-08-29T20:23:33.093Z,34.30
2017-08-29T20:26:07.624Z,34.07
2017-08-29T20:28:42.097Z,32.80
2017-08-29T20:31:17.408Z,35.53
2017-08-29T20:33:51.793Z,34.30
2017-08-29T20:36:26.385Z,31.93
2017-08-29T20:39:00.893Z,32.60
2017-08-29T20:41:35.373Z,33.60
2017-08-29T20:44:10.536Z,32.53
2017-08-29T20:46:44.905Z,32.60
2017-08-29T20:49:19.271Z,31.33
2017-08-29T20:51:53.680Z,34.37
2017-08-29T20:54:28.256Z,34.23
2017-08-29T20:57:02.664Z,33.17
2017-08-29T20:59:37.345Z,32.07
2017-08-29T21:02:11.862Z,34.27
2017-08-29T21:04:46.406Z,33.13
2017-08-29T21:07:21.664Z,32.03
2017-08-29T21:09:56.216Z,32.90
2017-08-29T21:12:30.684Z,33.70
2017-08-29T21:15:05.035Z,31.27
2017-08-29T21:17:39.359Z,33.10
2017-08-29T21:20:13.879Z,31.33
2017-08-29T21:22:48.340Z,32.67
2017-08-29T21:25:22.849Z,33.60
2017-08-29T21:27:57.557Z,29.57
2017-08-29T21:30:32.020Z,31.83
2017-08-29T21:33:06.412Z,30.20
2017-08-29T21:35:40.752Z,31.33
2017-08-29T21:38:15.118Z,31.90
2017-08-29T21:40:49.445Z,30.67
2017-08-29T21:43:23.809Z,31.43
2017-08-29T21:45:58.213Z,30.03
2017-08-29T21:48:32.548Z,33.13
2017-08-29T21:51:06.895Z,33.03
2017-08-29T21:53:41.346Z,35.17
2017-08-29T21:56:16.018Z,38.30
2017-08-29T21:58:50.536Z,35.90
2017-08-29T22:01:25.001Z,36.27
2017-08-29T22:03:59.648Z,37.90
2017-08-29T22:06:34.332Z,38.17
2017-08-29T22:09:08.707Z,39.93
2017-08-29T22:11:43.033Z,38.70
2017-08-29T22:14:17.432Z,38.00
2017-08-29T22:16:51.886Z,40.30
2017-08-29T22:19:27.029Z,39.30
2017-08-29T22:22:01.465Z,37.47
2017-08-29T22:24:36.034Z,39.57
2017-08-29T22:27:10.475Z,39.57
2017-08-29T22:29:44.888Z,39.00
2017-08-29T22:32:19.281Z,40.70
2017-08-29T22:34:53.829Z,39.30
2017-08-29T22:37:28.485Z,41.43
2017-08-29T22:40:03.914Z,41.37
2017-08-29T22:42:38.325Z,44.00
2017-08-29T22:45:12.806Z,41.97
2017-08-29T22:47:47.445Z,40.20
2017-08-29T22:50:21.953Z,38.90
2017-08-29T22:52:56.539Z,45.90
2017-08-29T22:55:30.891Z,43.10
2017-08-29T22:58:05.545Z,39.77
2017-08-29T23:00:39.913Z,40.63
2017-08-29T23:03:14.308Z,43.50
2017-08-29T23:05:48.747Z,43.90
2017-08-29T23:08:23.156Z,45.87
2017-08-29T23:10:57.612Z,47.00
2017-08-29T23:13:31.992Z,47.00
2017-08-29T23:16:06.404Z,49.50
2017-08-29T23:18:40.808Z,50.50
2017-08-29T23:21:15.245Z,48.80
2017-08-29T23:23:49.625Z,51.70
2017-08-29T23:26:24.262Z,52.77
2017-08-29T23:28:58.545Z,49.40
2017-08-29T23:31:32.950Z,50.00
2017-08-29T23:34:07.445Z,53.30
2017-08-29T23:36:41.924Z,51.77
2017-08-29T23:39:16.482Z,52.13
2017-08-29T23:41:50.857Z,45.80
2017-08-29T23:44:25.437Z,47.73
2017-08-29T23:47:00.023Z,44.60
2017-08-29T23:49:34.548Z,44.37
2017-08-29T23:52:08.884Z,45.17
2017-08-29T23:54:43.585Z,42.57
2017-08-29T23:57:17.969Z,42.20
2017-08-29T23:59:52.364Z,39.43
